Dublin, VA

9:36 AM EDT on October 23, 2014 (GMT -0400)
New River Valley | Change Station
CLOSE
Current Station
Airport
Location: Dublin,
Elevation: 2106 ft
Nearby Weather Stations

Elev 2106 ft 37.14 °N, 80.68 °W | Updated 21 minutes ago

Overcast
Overcast
47 °F
Feels Like 47 °F
N
14
Wind Variable Wind from NW
Gusts 23 mph

Today
High -- | Low -- °F
--% Chance of Precip.
Yesterday
High -- | Low -- °F
Precip. -- in
7:38 AM 6:35 PM
Waning Crescent, 0% visible
Pressure 30.14 in
Visibility 10.0 miles
Clouds Overcast 2000 ft
Dew Point 40 °F
Humidity 77%
Rainfall 0.00 in
Snow Depth Not available.
UV 0 out of 12
Pollen 2.00 out of 12
Air Quality Not available.
Flu Activity Local Activity
METAR KPSK 231315Z AUTO 32012G20KT 10SM OVC020 08/05 A3014 RMK AO2 T00840045

More Conditions Fewer Conditions

Pressure 30.14 in
Visibility 10.0 miles
Clouds Overcast 2000 ft
Dew Point 40 °F
Humidity 77%
Rainfall 0.00 in
Snow Depth Not available.
UV 0 out of 12
Pollen 2.00 out of 12
Air Quality Not available.
Flu Activity Local Activity
METAR KPSK 231315Z AUTO 32012G20KT 10SM OVC020 08/05 A3014 RMK AO2 T00840045

More Conditions Fewer Conditions

10-Day Weather Forecast

Almanac

Astronomy

Oct. 23, 2014 Rise Set
Actual Time 7:38 AM EDT 6:35 PM EDT
Civil Twilight 7:11 AM EDT 7:01 PM EDT
Nautical Twilight 6:41 AM EDT 7:32 PM EDT
Astronomical Twilight 6:10 AM EDT 8:02 PM EDT
Moon 7:16 AM EDT 6:36 PM EDT
Length of Visible Light 11h 50m
Length of Day
10h 57m
Tomorrow will be 2m 12s shorter.
Waning Crescent, 0% of the Moon is Illuminated
Today
Waning Crescent
Oct 23
New
Oct 30
First Quarter
Nov 6
Full
Nov 14
Last Quarter

Today's Extremes

State Highs State Lows

Community

WunderPhotos

Upload Photos

1,764,238 photos uploaded!

Nearby

Snow Depth

Station Depth Elevation
No new snow has been reported.

Earthquake Activity

City Distance Mag. Time & Date
No recent earthquake activity has been reported nearby.
Minimum magnitude displayed is 2.5.

Coastal Water Temperatures

Place Temperature
No Stations Reporting

Nearby Weather Stations